Time;durP1;ratioP1;P1;durP2;ratioP2;P2;SDS_P1;SDS_P2;PMS_P1;PMS_P2;Temp;Humidity;BMP_temperature;BMP_pressure;BME280_temperature;BME280_humidity;BME280_pressure;Samples;Min_cycle;Max_cycle;Signal;HPM_P1;HPM_P2
2021/06/22 00:02:35;;;;;;;0.40;0.40;;;;;;;;;;6241889;22;20210;-88
2021/06/22 00:05:42;;;;;;;22.27;1.15;;;;;;;;;;6240959;22;20260;-90
2021/06/22 00:08:47;;;;;;;2.47;0.95;;;;;;;;;;6242551;23;20281;-89
2021/06/22 00:11:52;;;;;;;0.47;0.47;;;;;;;;;;6225516;22;20155;-89
2021/06/22 00:14:58;;;;;;;0.15;0.15;;;;;;;;;;6243227;22;20166;-90
2021/06/22 00:18:03;;;;;;;0.30;0.30;;;;;;;;;;6239694;23;20170;-89
2021/06/22 00:21:10;;;;;;;0.30;0.30;;;;;;;;;;6238045;23;20167;-88
2021/06/22 00:24:14;;;;;;;0.20;0.20;;;;;;;;;;6241500;23;20241;-90
2021/06/22 00:27:20;;;;;;;0.20;0.20;;;;;;;;;;6241420;23;20173;-88
2021/06/22 00:30:25;;;;;;;0.10;0.10;;;;;;;;;;6242370;23;20249;-90
2021/06/22 00:33:30;;;;;;;0.20;0.20;;;;;;;;;;6240939;23;20494;-88
2021/06/22 00:36:37;;;;;;;0.70;0.70;;;;;;;;;;6240910;23;20688;-89
2021/06/22 00:39:43;;;;;;;0.20;0.20;;;;;;;;;;6244170;23;20221;-90
2021/06/22 00:42:49;;;;;;;1.45;0.65;;;;;;;;;;6228507;23;20174;-91
2021/06/22 00:45:56;;;;;;;8.10;1.05;;;;;;;;;;6245699;23;20193;-91
2021/06/22 00:49:02;;;;;;;0.10;0.10;;;;;;;;;;6247102;22;20202;-91
2021/06/22 00:52:12;;;;;;;0.40;0.40;;;;;;;;;;6243288;23;20166;-89
2021/06/22 00:55:32;;;;;;;0.73;0.43;;;;;;;;;;6244380;23;20171;-90
2021/06/22 00:58:38;;;;;;;0.10;0.10;;;;;;;;;;6245005;22;20491;-90
2021/06/22 01:01:43;;;;;;;0.75;0.75;;;;;;;;;;6242053;23;20219;-91
2021/06/22 01:04:48;;;;;;;0.20;0.20;;;;;;;;;;6243308;23;20205;-90
2021/06/22 01:08:08;;;;;;;0.25;0.25;;;;;;;;;;6243561;23;20166;-89
2021/06/22 01:11:14;;;;;;;0.20;0.20;;;;;;;;;;6245106;23;20706;-90
2021/06/22 01:14:20;;;;;;;1.08;0.68;;;;;;;;;;6244316;23;20162;-89
2021/06/22 01:17:26;;;;;;;0.70;0.70;;;;;;;;;;6242729;23;20264;-92
2021/06/22 01:20:32;;;;;;;0.30;0.30;;;;;;;;;;6242529;23;20170;-90
2021/06/22 01:23:40;;;;;;;0.40;0.40;;;;;;;;;;6241407;23;20213;-89
2021/06/22 01:26:49;;;;;;;0.22;0.22;;;;;;;;;;6243722;23;20162;-91
2021/06/22 01:29:54;;;;;;;0.52;0.40;;;;;;;;;;6240854;23;20194;-90
2021/06/22 01:33:00;;;;;;;0.50;0.50;;;;;;;;;;6237395;22;20276;-91
2021/06/22 01:36:08;;;;;;;4.05;0.50;;;;;;;;;;6243781;22;20170;-93
2021/06/22 01:39:15;;;;;;;0.47;0.47;;;;;;;;;;6242191;23;20175;-91
2021/06/22 01:42:21;;;;;;;0.52;0.38;;;;;;;;;;6243917;23;20162;-90
2021/06/22 01:45:30;;;;;;;0.40;0.40;;;;;;;;;;6243970;23;20163;-90
2021/06/22 01:48:35;;;;;;;1.05;0.63;;;;;;;;;;6241652;23;20190;-91
2021/06/22 01:51:41;;;;;;;0.60;0.43;;;;;;;;;;6243145;23;20471;-91
2021/06/22 01:54:48;;;;;;;0.20;0.20;;;;;;;;;;6244275;23;20166;-91
2021/06/22 01:57:55;;;;;;;0.80;0.32;;;;;;;;;;6243469;23;20202;-90
2021/06/22 02:01:20;;;;;;;0.40;0.40;;;;;;;;;;6261606;23;20159;-91
2021/06/22 02:04:40;;;;;;;2.40;1.05;;;;;;;;;;6240961;23;20171;-91
2021/06/22 02:07:51;;;;;;;13.93;1.52;;;;;;;;;;6239081;23;20243;-90
2021/06/22 02:11:01;;;;;;;4.63;1.42;;;;;;;;;;6240373;23;20190;-92
2021/06/22 02:14:28;;;;;;;0.40;0.40;;;;;;;;;;6240249;23;20237;-91
2021/06/22 02:17:32;;;;;;;0.22;0.22;;;;;;;;;;6241525;23;20170;-89
2021/06/22 02:20:38;;;;;;;0.35;0.35;;;;;;;;;;6242020;23;20302;-91
2021/06/22 02:23:44;;;;;;;9.05;0.63;;;;;;;;;;6241103;23;20169;-90
2021/06/22 02:26:55;;;;;;;0.45;0.45;;;;;;;;;;6241466;22;20239;-91
2021/06/22 02:30:01;;;;;;;0.35;0.35;;;;;;;;;;6241619;23;20229;-90
2021/06/22 02:33:06;;;;;;;0.40;0.40;;;;;;;;;;6241394;23;20215;-91
2021/06/22 02:36:11;;;;;;;0.30;0.30;;;;;;;;;;6241139;23;20166;-90
2021/06/22 02:39:19;;;;;;;0.22;0.22;;;;;;;;;;6241629;23;20161;-90
2021/06/22 02:42:32;;;;;;;0.30;0.30;;;;;;;;;;6240312;23;20178;-89
2021/06/22 02:45:44;;;;;;;2.05;0.82;;;;;;;;;;6241200;23;20174;-90
2021/06/22 02:48:56;;;;;;;1.55;0.95;;;;;;;;;;6241336;23;20167;-89
2021/06/22 02:52:02;;;;;;;0.40;0.40;;;;;;;;;;6241719;23;20221;-90
2021/06/22 02:55:18;;;;;;;0.30;0.30;;;;;;;;;;6239809;22;20166;-89
2021/06/22 02:58:30;;;;;;;0.40;0.40;;;;;;;;;;6240784;23;20162;-90
2021/06/22 03:01:36;;;;;;;0.47;0.47;;;;;;;;;;6240410;23;20193;-89
2021/06/22 03:04:41;;;;;;;0.20;0.20;;;;;;;;;;6239495;23;20205;-89
2021/06/22 03:07:46;;;;;;;0.20;0.20;;;;;;;;;;6239708;23;20625;-90
2021/06/22 03:10:52;;;;;;;0.55;0.55;;;;;;;;;;6239975;23;20251;-90
2021/06/22 03:13:59;;;;;;;1.90;0.63;;;;;;;;;;6240731;23;20154;-89
2021/06/22 03:17:26;;;;;;;0.20;0.20;;;;;;;;;;6241792;23;20217;-89
2021/06/22 03:20:32;;;;;;;1.15;0.77;;;;;;;;;;6241917;23;20169;-90
2021/06/22 03:23:38;;;;;;;0.75;0.60;;;;;;;;;;6244522;23;20169;-90
2021/06/22 03:26:45;;;;;;;0.65;0.60;;;;;;;;;;6241779;22;20170;-89
2021/06/22 03:29:51;;;;;;;0.20;0.20;;;;;;;;;;6242401;23;20251;-89
2021/06/22 03:32:57;;;;;;;0.40;0.40;;;;;;;;;;6242514;23;20197;-91
2021/06/22 03:36:02;;;;;;;0.73;0.63;;;;;;;;;;6243051;23;20170;-90
2021/06/22 03:39:08;;;;;;;0.30;0.30;;;;;;;;;;6241059;23;20170;-89
2021/06/22 03:42:14;;;;;;;0.80;0.68;;;;;;;;;;6242023;23;20166;-88
2021/06/22 03:45:21;;;;;;;0.40;0.40;;;;;;;;;;6241644;23;20163;-89
2021/06/22 03:48:29;;;;;;;0.20;0.20;;;;;;;;;;6243160;23;20213;-89
2021/06/22 03:51:35;;;;;;;1.75;0.73;;;;;;;;;;6243419;23;20170;-90
2021/06/22 03:54:40;;;;;;;4.43;1.27;;;;;;;;;;6242249;23;20237;-91
2021/06/22 03:57:46;;;;;;;0.35;0.35;;;;;;;;;;6242544;23;20146;-90
2021/06/22 04:00:58;;;;;;;0.80;0.73;;;;;;;;;;6241086;23;20198;-89
2021/06/22 04:04:15;;;;;;;0.47;0.47;;;;;;;;;;6242296;22;20241;-89
2021/06/22 04:07:49;;;;;;;3.08;0.77;;;;;;;;;;6259361;23;20500;-90
2021/06/22 04:10:55;;;;;;;2.65;0.93;;;;;;;;;;6242806;23;20280;-89
2021/06/22 04:14:01;;;;;;;0.50;0.50;;;;;;;;;;6242054;22;20182;-90
2021/06/22 04:17:18;;;;;;;0.25;0.25;;;;;;;;;;6240851;23;20174;-88
2021/06/22 04:20:23;;;;;;;0.38;0.38;;;;;;;;;;6242710;23;20166;-89
2021/06/22 04:23:29;;;;;;;0.70;0.50;;;;;;;;;;6240414;23;20341;-90
2021/06/22 04:26:35;;;;;;;6.93;1.50;;;;;;;;;;6241912;23;20177;-89
2021/06/22 04:29:40;;;;;;;16.73;1.45;;;;;;;;;;6240871;22;20622;-88
2021/06/22 04:32:47;;;;;;;1.73;0.93;;;;;;;;;;6240629;23;20193;-88
2021/06/22 04:35:52;;;;;;;1.75;0.80;;;;;;;;;;6240678;23;20625;-88
2021/06/22 04:38:57;;;;;;;0.80;0.70;;;;;;;;;;6240522;23;20167;-91
2021/06/22 04:42:03;;;;;;;0.30;0.30;;;;;;;;;;6242544;23;20162;-88
2021/06/22 04:45:09;;;;;;;0.45;0.45;;;;;;;;;;6241093;22;20169;-89
2021/06/22 04:48:15;;;;;;;0.60;0.60;;;;;;;;;;6238800;22;20179;-88
2021/06/22 04:51:19;;;;;;;1.08;0.68;;;;;;;;;;6239553;23;20198;-88
2021/06/22 04:54:24;;;;;;;0.57;0.55;;;;;;;;;;6241942;23;20154;-88
2021/06/22 04:57:29;;;;;;;0.52;0.35;;;;;;;;;;6241356;23;20278;-90
2021/06/22 05:00:34;;;;;;;8.13;2.30;;;;;;;;;;6241412;22;20174;-90
2021/06/22 05:03:41;;;;;;;7.60;2.28;;;;;;;;;;6242882;22;20159;-89
2021/06/22 05:06:47;;;;;;;14.32;2.40;;;;;;;;;;6242974;22;20166;-89
2021/06/22 05:09:53;;;;;;;8.52;2.20;;;;;;;;;;6244028;23;20194;-91
2021/06/22 05:12:58;;;;;;;10.25;2.22;;;;;;;;;;6244326;22;20177;-90
2021/06/22 05:16:03;;;;;;;8.57;2.90;;;;;;;;;;6243754;22;20171;-91
2021/06/22 05:19:10;;;;;;;10.13;2.70;;;;;;;;;;6242042;23;20265;-93
2021/06/22 05:22:16;;;;;;;11.88;2.60;;;;;;;;;;6241766;23;20167;-92
2021/06/22 05:25:21;;;;;;;10.20;2.50;;;;;;;;;;6243185;23;20161;-92
2021/06/22 05:28:26;;;;;;;12.65;2.63;;;;;;;;;;6244046;23;20166;-92
2021/06/22 05:31:33;;;;;;;8.77;2.65;;;;;;;;;;6245958;23;20227;-90
2021/06/22 05:34:39;;;;;;;6.88;2.10;;;;;;;;;;6246462;23;20150;-91
2021/06/22 05:37:44;;;;;;;11.30;2.65;;;;;;;;;;6243941;22;20244;-91
2021/06/22 05:40:49;;;;;;;7.80;2.20;;;;;;;;;;6244751;23;20210;-91
2021/06/22 05:43:54;;;;;;;7.85;2.25;;;;;;;;;;6243752;23;20169;-92
2021/06/22 05:47:00;;;;;;;13.32;2.60;;;;;;;;;;6243841;23;20212;-90
2021/06/22 05:50:09;;;;;;;7.20;2.30;;;;;;;;;;6246501;22;20205;-92
2021/06/22 10:23:35;;;;;;;5.35;1.30;;;;;;;;;;6221384;22;20213;-91
2021/06/22 10:26:42;;;;;;;7.82;1.92;;;;;;;;;;6247224;22;20202;-92
2021/06/22 10:29:50;;;;;;;3.92;1.70;;;;;;;;;;6248168;22;20625;-93
2021/06/22 10:32:55;;;;;;;3.42;1.40;;;;;;;;;;6247518;23;20205;-94
2021/06/22 10:36:00;;;;;;;3.92;1.48;;;;;;;;;;6246077;23;20161;-90
2021/06/22 10:39:10;;;;;;;4.38;1.20;;;;;;;;;;6246123;22;20166;-90
2021/06/22 10:42:15;;;;;;;3.70;1.33;;;;;;;;;;6246885;22;20174;-91
2021/06/22 10:45:21;;;;;;;7.75;1.45;;;;;;;;;;6245921;22;20165;-92
2021/06/22 10:52:39;;;;;;;4.50;1.30;;;;;;;;;;6244867;22;20170;-92
2021/06/22 10:56:05;;;;;;;2.20;1.27;;;;;;;;;;6245814;22;20186;-92
2021/06/22 16:57:08;;;;;;;11.23;2.97;;;;;;;;;;6237379;22;20211;-92
2021/06/22 17:00:14;;;;;;;13.15;2.70;;;;;;;;;;6242200;23;20182;-91
2021/06/22 17:03:19;;;;;;;19.23;5.10;;;;;;;;;;6243980;22;20198;-91
2021/06/22 17:06:24;;;;;;;7.32;1.55;;;;;;;;;;6243278;23;20301;-89
2021/06/22 17:09:30;;;;;;;0.77;0.75;;;;;;;;;;6241860;23;20214;-90
2021/06/22 17:12:36;;;;;;;1.83;1.27;;;;;;;;;;6241692;23;20163;-90
2021/06/22 17:15:42;;;;;;;0.90;0.90;;;;;;;;;;6240587;23;20150;-91
2021/06/22 17:18:47;;;;;;;0.70;0.70;;;;;;;;;;6242216;23;20194;-90
2021/06/22 17:21:52;;;;;;;0.75;0.75;;;;;;;;;;6244235;22;20167;-92
2021/06/22 17:24:57;;;;;;;0.43;0.43;;;;;;;;;;6243790;23;20174;-91
2021/06/22 17:28:04;;;;;;;1.08;0.98;;;;;;;;;;6243920;23;20154;-91
2021/06/22 17:31:10;;;;;;;14.57;2.22;;;;;;;;;;6246018;22;20182;-91
2021/06/22 17:34:15;;;;;;;1.67;1.50;;;;;;;;;;6246726;22;20174;-93
2021/06/22 17:37:26;;;;;;;0.85;0.85;;;;;;;;;;6246232;23;20481;-91
2021/06/22 17:40:34;;;;;;;2.50;1.35;;;;;;;;;;6244428;23;20174;-91
2021/06/22 17:43:44;;;;;;;0.80;0.60;;;;;;;;;;6244208;23;20154;-93
2021/06/22 17:46:50;;;;;;;0.85;0.82;;;;;;;;;;6242424;23;20170;-93
2021/06/22 17:49:56;;;;;;;0.32;0.32;;;;;;;;;;6244614;23;20181;-92
2021/06/22 17:53:01;;;;;;;0.82;0.57;;;;;;;;;;6242987;23;20175;-92
2021/06/22 17:56:07;;;;;;;2.28;1.23;;;;;;;;;;6241550;23;20190;-92
2021/06/22 17:59:13;;;;;;;2.10;0.85;;;;;;;;;;6241528;23;20175;-91
2021/06/22 18:02:20;;;;;;;0.52;0.52;;;;;;;;;;6244236;23;20161;-90
2021/06/22 18:05:25;;;;;;;1.60;1.00;;;;;;;;;;6244651;22;20515;-92
2021/06/22 18:08:31;;;;;;;0.32;0.32;;;;;;;;;;6243079;22;20198;-91
2021/06/22 18:11:36;;;;;;;1.40;0.73;;;;;;;;;;6243382;22;20194;-91
2021/06/22 18:14:43;;;;;;;0.75;0.75;;;;;;;;;;6245519;23;20214;-90
2021/06/22 18:17:48;;;;;;;1.65;1.20;;;;;;;;;;6245318;22;20193;-90
2021/06/22 18:20:55;;;;;;;1.52;0.88;;;;;;;;;;6242886;22;20170;-92
2021/06/22 18:24:00;;;;;;;2.13;0.80;;;;;;;;;;6244116;23;20243;-90
2021/06/22 18:27:06;;;;;;;0.38;0.38;;;;;;;;;;6243616;22;20167;-91
2021/06/22 18:30:14;;;;;;;0.40;0.40;;;;;;;;;;6241342;22;20621;-91
2021/06/22 18:33:20;;;;;;;1.48;1.10;;;;;;;;;;6244739;22;20210;-91
2021/06/22 18:36:25;;;;;;;0.98;0.88;;;;;;;;;;6245686;22;20238;-92
2021/06/22 18:39:31;;;;;;;3.17;1.35;;;;;;;;;;6243745;22;20213;-92
2021/06/22 18:42:36;;;;;;;0.57;0.57;;;;;;;;;;6245470;22;20174;-91
2021/06/22 18:45:42;;;;;;;2.30;0.95;;;;;;;;;;6244963;23;20166;-92
2021/06/22 18:48:47;;;;;;;0.57;0.57;;;;;;;;;;6245005;22;20162;-91
2021/06/22 18:51:53;;;;;;;1.25;0.85;;;;;;;;;;6245932;22;20198;-92
2021/06/22 18:54:58;;;;;;;2.40;1.52;;;;;;;;;;6244099;23;20286;-91
2021/06/22 18:58:04;;;;;;;0.50;0.50;;;;;;;;;;6233064;22;20167;-92
2021/06/22 19:01:11;;;;;;;0.65;0.65;;;;;;;;;;6213518;22;20186;-91
2021/06/22 19:04:17;;;;;;;1.17;1.08;;;;;;;;;;6214537;23;20174;-91
2021/06/22 19:07:23;;;;;;;0.50;0.50;;;;;;;;;;6214299;23;20179;-92
2021/06/22 19:10:29;;;;;;;0.85;0.80;;;;;;;;;;6216614;23;20208;-91
2021/06/22 19:13:34;;;;;;;0.40;0.40;;;;;;;;;;6215628;22;20195;-91
2021/06/22 19:16:41;;;;;;;1.83;1.02;;;;;;;;;;6216346;22;20166;-91
2021/06/22 19:19:46;;;;;;;0.70;0.70;;;;;;;;;;6216653;23;20511;-91
2021/06/22 19:22:52;;;;;;;7.90;1.58;;;;;;;;;;6215908;22;20186;-91
2021/06/22 19:25:57;;;;;;;0.57;0.57;;;;;;;;;;6216348;23;20171;-92
2021/06/22 19:29:03;;;;;;;0.93;0.88;;;;;;;;;;6216371;22;20158;-91
2021/06/22 19:32:11;;;;;;;1.17;1.08;;;;;;;;;;6215325;23;20195;-92
2021/06/22 19:35:16;;;;;;;0.60;0.60;;;;;;;;;;6214785;23;20191;-92
2021/06/22 19:38:24;;;;;;;0.40;0.40;;;;;;;;;;6214414;23;20159;-90
2021/06/22 19:41:29;;;;;;;1.67;1.42;;;;;;;;;;6216812;22;20162;-89
2021/06/22 19:44:35;;;;;;;0.57;0.57;;;;;;;;;;6217197;23;20243;-90
2021/06/22 19:47:42;;;;;;;1.67;1.17;;;;;;;;;;6216581;23;20187;-91
2021/06/22 19:50:52;;;;;;;0.70;0.70;;;;;;;;;;6232271;22;20167;-91
2021/06/22 19:53:58;;;;;;;1.05;0.80;;;;;;;;;;6214709;22;20163;-92
2021/06/22 19:57:03;;;;;;;11.30;6.55;;;;;;;;;;6235467;23;20209;-90
2021/06/22 20:00:10;;;;;;;10.77;7.50;;;;;;;;;;6246898;23;20199;-90
2021/06/22 20:03:23;;;;;;;11.80;6.70;;;;;;;;;;6245850;23;20194;-92
2021/06/22 20:06:28;;;;;;;14.60;7.57;;;;;;;;;;6245856;22;20535;-91
2021/06/22 20:09:34;;;;;;;16.38;7.70;;;;;;;;;;6246993;22;20174;-91
2021/06/22 20:12:40;;;;;;;17.63;7.97;;;;;;;;;;6244183;22;20198;-91
2021/06/22 20:15:46;;;;;;;14.00;8.23;;;;;;;;;;6244446;22;20194;-92
2021/06/22 20:18:52;;;;;;;22.63;8.52;;;;;;;;;;6244234;23;20190;-91
2021/06/22 20:22:00;;;;;;;13.43;7.60;;;;;;;;;;6244697;22;20170;-91
2021/06/22 20:25:06;;;;;;;12.23;6.80;;;;;;;;;;6243442;23;20234;-91
2021/06/22 20:28:11;;;;;;;12.55;7.25;;;;;;;;;;6243541;23;20166;-91
2021/06/22 20:31:17;;;;;;;11.65;6.50;;;;;;;;;;6245845;22;20521;-91
2021/06/22 20:34:25;;;;;;;12.43;6.47;;;;;;;;;;6243160;22;20166;-91
2021/06/22 20:37:30;;;;;;;14.52;6.72;;;;;;;;;;6244835;23;20175;-91
2021/06/22 20:40:38;;;;;;;18.13;8.07;;;;;;;;;;6247723;22;20162;-92
2021/06/22 20:43:46;;;;;;;14.07;7.97;;;;;;;;;;6264720;22;20159;-92
2021/06/22 20:46:52;;;;;;;11.98;7.70;;;;;;;;;;6246516;22;20158;-93
2021/06/22 20:50:02;;;;;;;14.25;7.43;;;;;;;;;;6248998;23;20210;-91
2021/06/22 20:53:10;;;;;;;14.07;7.63;;;;;;;;;;6247476;23;20198;-92
2021/06/22 20:56:16;;;;;;;15.68;7.93;;;;;;;;;;6248360;22;20189;-92
2021/06/22 20:59:22;;;;;;;16.13;7.10;;;;;;;;;;6249207;23;20217;-94
2021/06/22 21:05:51;;;;;;;13.57;8.75;;;;;;;;;;6249544;23;20169;-91
2021/06/22 21:09:05;;;;;;;14.93;8.52;;;;;;;;;;6250146;23;20182;-91
2021/06/22 21:12:12;;;;;;;23.38;12.07;;;;;;;;;;6249912;22;20202;-91
2021/06/22 21:15:18;;;;;;;26.60;14.65;;;;;;;;;;6247592;23;20283;-91
2021/06/22 21:21:44;;;;;;;12.93;8.18;;;;;;;;;;6248119;22;20242;-92
2021/06/22 21:24:51;;;;;;;17.38;9.50;;;;;;;;;;6247153;23;20167;-90
2021/06/22 21:28:01;;;;;;;14.50;7.55;;;;;;;;;;6245675;23;20170;-91
2021/06/22 21:31:11;;;;;;;11.73;6.47;;;;;;;;;;6247395;22;20171;-88
2021/06/22 21:34:16;;;;;;;11.63;6.85;;;;;;;;;;6246717;23;20175;-90
2021/06/22 21:37:22;;;;;;;11.82;6.95;;;;;;;;;;6246866;22;20162;-90
2021/06/22 21:40:32;;;;;;;8.70;6.22;;;;;;;;;;6251294;22;20238;-89
2021/06/22 21:43:45;;;;;;;10.10;5.78;;;;;;;;;;6250251;22;20167;-92
2021/06/22 21:46:56;;;;;;;7.22;5.15;;;;;;;;;;6247617;23;20150;-89
2021/06/22 21:50:01;;;;;;;10.60;6.65;;;;;;;;;;6246433;22;20250;-90
2021/06/22 21:53:08;;;;;;;16.08;8.55;;;;;;;;;;6244370;23;20597;-89
2021/06/22 21:56:17;;;;;;;17.13;8.93;;;;;;;;;;6246813;23;20194;-90
2021/06/22 21:59:22;;;;;;;13.65;8.38;;;;;;;;;;6246812;22;20154;-91
2021/06/22 22:02:40;;;;;;;11.95;8.35;;;;;;;;;;6247385;22;20194;-90
2021/06/22 22:05:47;;;;;;;16.90;7.97;;;;;;;;;;6249059;23;20240;-91
2021/06/22 22:08:57;;;;;;;14.05;8.00;;;;;;;;;;6216756;23;20190;-90
2021/06/22 22:12:06;;;;;;;11.05;7.32;;;;;;;;;;6237489;23;20203;-91
2021/06/22 22:15:12;;;;;;;13.10;8.18;;;;;;;;;;6215237;23;20175;-90
2021/06/22 22:18:17;;;;;;;13.10;8.48;;;;;;;;;;6216902;23;20156;-90
2021/06/22 22:21:24;;;;;;;19.52;8.75;;;;;;;;;;6214803;22;20191;-91
2021/06/22 22:24:31;;;;;;;20.10;8.70;;;;;;;;;;6216173;23;20202;-90
2021/06/22 22:27:36;;;;;;;14.02;8.70;;;;;;;;;;6217749;22;20224;-90
2021/06/22 22:30:42;;;;;;;15.77;8.05;;;;;;;;;;6216028;22;20167;-91
2021/06/22 22:33:48;;;;;;;16.27;9.50;;;;;;;;;;6219316;22;20239;-89
2021/06/22 22:36:53;;;;;;;15.18;10.00;;;;;;;;;;6216169;23;20190;-89
2021/06/22 22:40:00;;;;;;;16.33;10.00;;;;;;;;;;6233860;23;20630;-89
2021/06/22 22:43:05;;;;;;;18.60;10.07;;;;;;;;;;6232190;23;20174;-89
2021/06/22 22:46:10;;;;;;;23.13;11.50;;;;;;;;;;6231656;23;20168;-90
2021/06/22 22:49:15;;;;;;;16.77;10.73;;;;;;;;;;6230340;22;20167;-91
2021/06/22 22:52:20;;;;;;;14.30;10.25;;;;;;;;;;6228531;23;20190;-89
2021/06/22 22:55:26;;;;;;;18.20;10.15;;;;;;;;;;6227542;23;20555;-91
2021/06/22 22:58:31;;;;;;;14.30;10.38;;;;;;;;;;6225607;23;20171;-90
2021/06/22 23:01:36;;;;;;;14.13;9.95;;;;;;;;;;6229863;22;20199;-90
2021/06/22 23:25:16;;;;;;;18.17;11.23;;;;;;;;;;6155147;22;20212;-90
2021/06/22 23:28:22;;;;;;;16.05;11.52;;;;;;;;;;6229076;23;20167;-90
2021/06/22 23:31:27;;;;;;;18.38;10.55;;;;;;;;;;6230922;22;20195;-91
2021/06/22 23:34:32;;;;;;;14.90;10.93;;;;;;;;;;6231190;23;20180;-89
2021/06/22 23:37:38;;;;;;;16.17;11.23;;;;;;;;;;6230405;23;20183;-90
2021/06/22 23:40:50;;;;;;;17.90;11.50;;;;;;;;;;6214578;23;20226;-91
2021/06/22 23:43:57;;;;;;;21.80;10.57;;;;;;;;;;6231280;23;20183;-91
2021/06/22 23:47:02;;;;;;;15.75;11.38;;;;;;;;;;6210245;23;20162;-91
2021/06/22 23:50:10;;;;;;;14.52;10.85;;;;;;;;;;6230812;23;20170;-90
2021/06/22 23:53:16;;;;;;;19.15;13.10;;;;;;;;;;6228769;23;20191;-90
2021/06/22 23:56:26;;;;;;;20.38;11.32;;;;;;;;;;6230011;22;20226;-90
2021/06/22 23:59:32;;;;;;;23.13;12.45;;;;;;;;;;6230823;23;20327;-90
